Nearby METAR Reports

 

KCPC - Whiteville, North Carolina, USA
Distance from station: NNE 17mi, 28km
Updated: 04/10/2020 2:55am
Clear
Clear
 Wind from NW
Wind: NW 9 mph , 15 km/h
Temperature: 68°F , 20°C
Dew Point: 37°F , 3°C
Humidity: 33%
Barometer: 29.63 inHg , 1003.4 hPa
Clouds: Clear
Visibility: 10 miles , 16 km
2020/04/10 06:55 KCPC 100655Z AUTO 32008KT 10SM CLR 20/03 A2963 RMK AO2 T01950029
KCRE - North Myrtle Bea, South Carolina, USA
Distance from station: SSE 19mi, 31km
Updated: 04/10/2020 2:53am
Clear
Clear
 Wind from W
Wind: W 7 mph , 11 km/h
Temperature: 72°F , 22°C
Dew Point: 39°F , 4°C
Humidity: 31%
Barometer: 29.62 inHg , 1003 hPa
Clouds: Clear
Visibility: 10 miles , 16 km
2020/04/10 06:53 KCRE 100653Z AUTO 28006KT 10SM CLR 22/04 A2962 RMK AO1 SLP032 T02170044
 
KHYW - Conway-Horry Cty, South Carolina, USA
Distance from station: SW 22mi, 35km
Updated: 04/10/2020 2:55am
Clear
Clear
 Wind from calm
Wind: Calm
Temperature: 66°F , 19°C
Dew Point: 39°F , 4°C
Humidity: 37%
Barometer: 29.64 inHg , 1003.7 hPa
Clouds: Clear
Visibility: 10 miles , 16 km
2020/04/10 06:55 KHYW 100655Z AUTO 00000KT 10SM CLR 19/04 A2964 RMK AO2
KMAO - Marion, South Carolina, USA
Distance from station: WNW 28mi, 45km
Updated: 04/10/2020 2:55am
Clear
Clear
 Wind from WNW
Wind: WNW 14 mph , 22 km/h, Gust: 20 mph , 31 km/h
Temperature: 66°F , 19°C
Dew Point: 32°F , 0°C
Humidity: 28%
Barometer: 29.64 inHg , 1003.7 hPa
Clouds: Clear
Visibility: 10 miles , 16 km
2020/04/10 06:55 KMAO 100655Z AUTO 30012G17KT 10SM CLR 19/00 A2964 RMK AO2
 
KMYR - Myrtle Beach, South Carolina, USA
Distance from station: S 28mi, 45km
Updated: 04/10/2020 2:56am
Clear
Clear
 Wind from WNW
Wind: WNW 14 mph , 22 km/h
Temperature: 70°F , 21°C
Dew Point: 39°F , 4°C
Humidity: 33%
Barometer: 29.63 inHg , 1003.4 hPa
Clouds: Clear
Visibility: 10 miles , 16 km
2020/04/10 06:56 KMYR 100656Z AUTO 30012KT 10SM CLR 21/04 A2963 RMK AO2 SLP034 T02060044
KLBT - Lumberton, North Carolina, USA
Distance from station: NNW 39mi, 62km
Updated: 03/28/2019 9:55am
NOT Current

 
2019/03/28 13:55 KLBT 281355Z MKT MSM M M M M A0000 M M RMK TEST
 
KSUT - Southport, North Carolina, USA
Distance from station: E 46mi, 74km
Updated: 04/10/2020 2:55am
Clear
Clear
 Wind from WNW
Wind: WNW 10 mph , 17 km/h
Temperature: 70°F , 21°C
Dew Point: 39°F , 4°C
Humidity: 33%
Barometer: 29.62 inHg , 1003 hPa
Clouds: Clear
Visibility: 10 miles , 16 km
2020/04/10 06:55 KSUT 100655Z AUTO 29009KT 10SM CLR 21/04 A2962 RMK AO2 T02090041
KFLO - Florence, South Carolina, USA
Distance from station: W 50mi, 81km
Updated: 04/10/2020 2:53am
Clear
Clear
 Wind from NW
Wind: NW 9 mph , 15 km/h
Temperature: 68°F , 20°C
Dew Point: 36°F , 2°C
Humidity: 30%
Barometer: 29.65 inHg , 1004.1 hPa
Clouds: Clear
Visibility: 10 miles , 16 km
2020/04/10 06:53 KFLO 100653Z AUTO 31008KT 10SM CLR 20/02 A2965 RMK AO2 SLP039 T02000017